Time;durP1;ratioP1;P1;durP2;ratioP2;P2;SDS_P1;SDS_P2;PMS_P1;PMS_P2;Temp;Humidity;BMP_temperature;BMP_pressure;BME280_temperature;BME280_humidity;BME280_pressure;Samples;Min_cycle;Max_cycle;Signal;HPM_P1;HPM_P2
2023/07/01 00:01:33;;;;;;;;;4.00;4.00;;;;;21.93;53.01;100255.53;5055878;28;45511;-72
2023/07/01 00:03:58;;;;;;;;;4.00;4.00;;;;;21.91;53.71;100265.56;5056124;28;45212;-71
2023/07/01 00:06:24;;;;;;;;;4.50;4.50;;;;;21.93;53.73;100260.91;5037766;28;45259;-76
2023/07/01 00:08:49;;;;;;;;;4.50;4.50;;;;;21.92;54.11;100253.84;5058294;28;56435;-75
2023/07/01 00:11:14;;;;;;;;;3.50;3.50;;;;;22.02;54.94;100256.53;5056393;28;45434;-75
2023/07/01 00:13:39;;;;;;;;;2.00;2.00;;;;;21.99;55.55;100254.13;5037220;28;56172;-75
2023/07/01 00:16:05;;;;;;;;;3.00;3.00;;;;;21.89;56.48;100260.34;5055809;28;45223;-76
2023/07/01 00:18:30;;;;;;;;;1.75;1.75;;;;;21.76;56.49;100243.75;5037593;28;47417;-74
2023/07/01 00:20:56;;;;;;;;;2.75;2.75;;;;;21.78;57.13;100249.81;5039492;28;45293;-73
2023/07/01 00:23:25;;;;;;;;;4.25;4.25;;;;;21.77;57.21;100244.59;5058522;28;45267;-76
2023/07/01 00:25:53;;;;;;;;;5.00;5.00;;;;;21.78;57.11;100243.59;5046724;28;45526;-77
2023/07/01 00:28:19;;;;;;;;;3.25;3.25;;;;;21.81;57.58;100246.84;5041135;28;45338;-78
2023/07/01 00:30:44;;;;;;;;;2.50;2.50;;;;;21.78;58.04;100238.25;5060589;28;45241;-77
2023/07/01 00:33:09;;;;;;;;;2.25;2.25;;;;;21.74;57.95;100238.53;5041657;28;45234;-72
2023/07/01 00:35:35;;;;;;;;;3.00;3.00;;;;;21.71;58.17;100228.09;5057199;28;45261;-76
2023/07/01 00:38:00;;;;;;;;;2.50;2.50;;;;;21.70;58.03;100226.41;5056500;28;45353;-77
2023/07/01 00:40:26;;;;;;;;;3.00;3.00;;;;;21.68;58.06;100217.69;5020918;28;45390;-76
2023/07/01 00:42:51;;;;;;;;;2.25;2.25;;;;;21.64;58.63;100216.28;5055889;28;45311;-77
2023/07/01 00:45:16;;;;;;;;;2.00;2.00;;;;;21.61;58.52;100216.53;5056545;28;45519;-76
2023/07/01 00:47:42;;;;;;;;;2.50;2.50;;;;;21.55;58.33;100219.78;5055414;28;46209;-73
2023/07/01 00:50:12;;;;;;;;;2.25;2.25;;;;;21.53;58.83;100214.56;5037527;28;45395;-76
2023/07/01 00:52:39;;;;;;;;;2.00;2.00;;;;;21.48;59.40;100210.63;5056902;28;45340;-74
2023/07/01 00:55:09;;;;;;;;;3.25;3.25;;;;;21.02;59.62;100139.84;5059262;28;45231;-75
2023/07/01 00:57:35;;;;;;;;;2.00;2.00;;;;;21.42;60.37;100206.69;5055801;28;45334;-76
2023/07/01 01:00:10;;;;;;;;;2.75;2.75;;;;;21.37;60.71;100201.78;5056231;28;45438;-74
2023/07/01 01:02:55;;;;;;;;;2.00;2.00;;;;;21.35;61.58;100202.88;5057718;28;45381;-77
2023/07/01 01:05:47;;;;;;;;;2.75;2.75;;;;;21.28;61.39;100189.25;5040446;28;45380;-77
2023/07/01 01:08:30;;;;;;;;;3.00;3.00;;;;;21.34;62.25;100198.53;5023717;28;46068;-75
2023/07/01 01:11:01;;;;;;;;;2.75;2.75;;;;;21.33;62.10;100192.34;5042125;28;45529;-78
2023/07/01 01:13:28;;;;;;;;;2.75;2.75;;;;;21.27;62.81;100191.06;5058698;28;45361;-76
2023/07/01 01:15:56;;;;;;;;;4.00;4.00;;;;;21.28;63.38;100190.06;5060312;28;45485;-75
2023/07/01 01:18:24;;;;;;;;;8.25;8.25;;;;;21.27;64.10;100192.91;5061046;28;45602;-74
2023/07/01 01:20:51;;;;;;;;;5.25;5.25;;;;;21.22;64.78;100185.28;5041067;28;45394;-77
2023/07/01 01:23:26;;;;;;;;;4.50;4.50;;;;;21.12;65.61;100189.81;5058505;28;45367;-69
2023/07/01 01:26:05;;;;;;;;;6.75;5.25;;;;;20.96;66.75;100185.00;5058482;28;45407;-77
2023/07/01 01:28:32;;;;;;;;;20.00;20.00;;;;;20.80;68.30;100182.88;5039439;28;47510;-76
2023/07/01 01:30:58;;;;;;;;;22.50;22.50;;;;;20.73;69.75;100174.53;5058039;28;45312;-76
2023/07/01 01:33:24;;;;;;;;;11.50;11.50;;;;;20.62;71.53;100185.31;5039834;28;45337;-76
2023/07/01 01:35:50;;;;;;;;;9.00;9.00;;;;;20.55;72.83;100171.66;5058901;28;45296;-75
2023/07/01 01:38:22;;;;;;;;;7.00;7.00;;;;;20.48;72.47;100171.38;5042020;28;46635;-72
2023/07/01 01:40:56;;;;;;;;;4.00;4.00;;;;;20.39;73.06;100161.50;5062280;28;45457;-76
2023/07/01 01:43:34;;;;;;;;;4.00;4.00;;;;;20.30;74.73;100149.81;5059082;28;45738;-74
2023/07/01 01:46:10;;;;;;;;;3.50;3.50;;;;;20.27;75.76;100158.94;5042766;28;45479;-74
2023/07/01 01:48:40;;;;;;;;;5.00;5.00;;;;;20.33;75.90;100159.38;5040676;28;47230;-71
2023/07/01 01:51:07;;;;;;;;;5.25;5.25;;;;;20.39;75.12;100161.50;5040195;28;45751;-70
2023/07/01 01:53:35;;;;;;;;;2.75;2.75;;;;;20.39;74.52;100161.50;5047893;28;45431;-74
2023/07/01 01:56:02;;;;;;;;;5.25;5.25;;;;;20.37;75.21;100152.78;5065438;28;45291;-75
2023/07/01 01:58:28;;;;;;;;;4.25;4.25;;;;;20.33;75.17;100138.84;5065571;28;46238;-69
2023/07/01 02:00:53;;;;;;;;;5.25;5.25;;;;;20.35;75.63;100149.41;5062146;28;45316;-73
2023/07/01 02:03:19;;;;;;;;;2.75;2.75;;;;;20.29;74.83;100130.28;5063383;28;45299;-74
2023/07/01 02:05:44;;;;;;;;;5.00;5.00;;;;;20.38;75.08;100154.47;5059534;28;45533;-70
2023/07/01 02:08:09;;;;;;;;;9.00;9.00;;;;;20.43;75.16;100147.72;5058213;28;45557;-74
2023/07/01 02:10:35;;;;;;;;;3.75;3.75;;;;;20.48;74.66;100149.16;5058950;28;45255;-70
2023/07/01 02:13:02;;;;;;;;;3.75;3.75;;;;;20.36;74.35;100129.72;5058483;28;45815;-69
2023/07/01 02:15:27;;;;;;;;;3.00;3.00;;;;;20.45;74.55;100136.91;5058648;28;45828;-71
2023/07/01 02:17:53;;;;;;;;;6.00;6.00;;;;;20.49;75.08;100134.81;5057299;28;46312;-70
2023/07/01 02:20:18;;;;;;;;;4.75;4.75;;;;;20.46;75.43;100113.72;5038088;28;56204;-71
2023/07/01 02:22:44;;;;;;;;;3.00;3.00;;;;;20.54;76.55;100121.88;5057701;28;45370;-63
2023/07/01 02:25:09;;;;;;;;;4.50;4.50;;;;;20.66;75.01;100112.75;5057493;28;45436;-63
2023/07/01 02:27:34;;;;;;;;;4.00;4.00;;;;;20.78;74.87;100118.84;5055408;28;46143;-64
2023/07/01 02:30:00;;;;;;;;;4.50;4.50;;;;;20.78;74.49;100118.00;5055880;28;67997;-64
2023/07/01 02:32:25;;;;;;;;;5.25;5.25;;;;;20.91;75.50;100117.72;5056312;28;45378;-62
2023/07/01 02:34:51;;;;;;;;;5.00;5.00;;;;;21.02;74.98;100109.56;5056469;28;45425;-65
2023/07/01 02:37:16;;;;;;;;;7.75;7.75;;;;;21.12;74.27;100105.06;5054861;28;45331;-66
2023/07/01 02:39:44;;;;;;;;;4.00;4.00;;;;;21.17;73.41;100099.28;5056660;28;45205;-66
2023/07/01 02:42:10;;;;;;;;;2.00;2.00;;;;;21.21;73.08;100089.16;5058289;28;45272;-65
2023/07/01 02:44:35;;;;;;;;;3.00;3.00;;;;;21.30;72.86;100104.34;5056332;28;45247;-64
2023/07/01 02:47:00;;;;;;;;;3.00;3.00;;;;;21.27;73.29;100099.28;5055296;28;45937;-64
2023/07/01 02:49:26;;;;;;;;;2.00;2.00;;;;;21.31;73.05;100090.00;5057202;28;45193;-67
2023/07/01 02:51:51;;;;;;;;;2.00;2.00;;;;;21.35;72.46;100094.06;5058457;28;45389;-73
2023/07/01 02:54:16;;;;;;;;;2.00;2.00;;;;;21.35;72.28;100101.22;5057260;28;45348;-69
2023/07/01 02:56:42;;;;;;;;;3.00;3.00;;;;;21.27;72.91;100094.78;5056242;28;46041;-72
2023/07/01 02:59:08;;;;;;;;;3.50;3.50;;;;;21.23;72.53;100092.53;5055766;28;45371;-70
2023/07/01 03:01:33;;;;;;;;;3.00;3.00;;;;;21.17;72.86;100089.44;5056973;28;45367;-70
2023/07/01 03:03:59;;;;;;;;;3.25;3.25;;;;;21.13;73.05;100085.34;5057452;28;45288;-71
2023/07/01 03:06:25;;;;;;;;;3.00;3.00;;;;;21.10;72.87;100079.47;5056432;28;45339;-71
2023/07/01 03:08:50;;;;;;;;;2.25;2.25;;;;;21.06;72.78;100084.22;5056464;28;45340;-71
2023/07/01 03:11:16;;;;;;;;;4.00;4.00;;;;;21.00;73.11;100074.97;5058938;28;45453;-71
2023/07/01 03:13:42;;;;;;;;;4.50;4.50;;;;;21.01;73.05;100078.47;5040203;28;45359;-70
2023/07/01 03:16:09;;;;;;;;;2.00;2.00;;;;;20.92;73.65;100061.47;5058366;28;47104;-72
2023/07/01 03:18:34;;;;;;;;;2.00;2.00;;;;;21.02;74.09;100077.47;5057327;28;45421;-72
2023/07/01 03:21:00;;;;;;;;;2.25;2.25;;;;;21.44;72.25;100079.81;5040024;28;45338;-78
2023/07/01 03:23:29;;;;;;;;;3.00;3.00;;;;;21.09;73.23;100067.91;5059572;28;45341;-74
2023/07/01 03:25:54;;;;;;;;;2.50;2.50;;;;;21.05;73.59;100071.84;5047637;28;47606;-75
2023/07/01 03:28:20;;;;;;;;;3.00;3.00;;;;;21.03;73.72;100065.81;5060595;28;45303;-74
2023/07/01 03:30:45;;;;;;;;;4.00;4.00;;;;;21.07;73.83;100069.88;5059043;28;45319;-73
2023/07/01 03:33:12;;;;;;;;;2.75;2.75;;;;;21.04;73.89;100043.44;5056598;28;45424;-69
2023/07/01 03:35:38;;;;;;;;;2.00;2.00;;;;;20.91;73.94;100037.53;5038847;28;48542;-71
2023/07/01 03:38:04;;;;;;;;;3.00;3.00;;;;;20.93;73.94;100051.59;5058519;28;45295;-70
2023/07/01 03:40:30;;;;;;;;;3.00;3.00;;;;;21.01;74.41;100059.75;5061430;28;45341;-72
2023/07/01 03:42:55;;;;;;;;;2.25;2.25;;;;;20.98;75.29;100052.88;5057683;28;45474;-69
2023/07/01 03:45:21;;;;;;;;;7.25;7.25;;;;;21.02;75.49;100059.63;5057993;28;46265;-75
2023/07/01 03:47:46;;;;;;;;;12.50;12.50;;;;;20.91;76.09;100037.53;5057312;28;45342;-75
2023/07/01 03:50:13;;;;;;;;;10.75;10.75;;;;;20.99;76.08;100051.91;5055891;28;45189;-71
2023/07/01 03:52:39;;;;;;;;;9.00;9.00;;;;;20.90;76.24;100052.75;5056690;28;45415;-69
2023/07/01 03:55:07;;;;;;;;;8.25;8.25;;;;;20.86;77.25;100048.66;5057570;28;46280;-76
2023/07/01 03:57:33;;;;;;;;;10.00;10.00;;;;;20.86;77.71;100049.50;5058714;28;45263;-77
2023/07/01 03:59:59;;;;;;;;;12.50;12.50;;;;;20.68;77.45;100029.78;5057018;28;45426;-75
2023/07/01 04:02:25;;;;;;;;;34.50;32.25;;;;;20.60;78.07;100035.00;5058138;28;45547;-75
2023/07/01 04:04:51;;;;;;;;;49.25;41.25;;;;;20.60;78.91;100032.31;5057399;28;45981;-73
2023/07/01 04:07:21;;;;;;;;;33.75;31.00;;;;;20.62;79.64;100031.19;5058111;28;45316;-78
2023/07/01 04:09:48;;;;;;;;;28.75;27.75;;;;;20.66;79.74;100032.59;5058661;28;45397;-76
2023/07/01 04:12:13;;;;;;;;;20.75;20.75;;;;;20.48;79.71;100000.41;5062410;28;45773;-71
2023/07/01 04:14:39;;;;;;;;;12.75;12.75;;;;;20.70;80.24;100039.38;5058525;28;49531;-76
2023/07/01 04:17:04;;;;;;;;;6.50;6.50;;;;;20.73;80.56;100036.41;5040856;28;45542;-80
2023/07/01 04:19:31;;;;;;;;;4.00;4.00;;;;;20.68;80.48;100027.97;5043137;28;45292;-72
2023/07/01 04:21:56;;;;;;;;;4.75;4.75;;;;;20.69;80.56;100034.16;5057739;28;45191;-73
2023/07/01 04:24:21;;;;;;;;;3.00;3.00;;;;;20.69;80.56;100028.81;5057424;28;46429;-73
2023/07/01 04:26:47;;;;;;;;;3.50;3.50;;;;;20.67;81.32;100031.59;5056327;28;45493;-75
2023/07/01 04:29:12;;;;;;;;;3.00;3.00;;;;;20.67;82.25;100017.41;5059894;28;45415;-76
2023/07/01 04:31:38;;;;;;;;;1.00;1.00;;;;;20.70;82.44;100023.34;5062722;28;45318;-76
2023/07/01 04:34:03;;;;;;;;;2.00;2.00;;;;;20.75;82.82;100030.09;5055443;28;46266;-73
2023/07/01 04:36:29;;;;;;;;;2.25;2.25;;;;;20.66;83.23;100019.22;5056595;28;45307;-72
2023/07/01 04:38:55;;;;;;;;;1.75;1.75;;;;;20.50;88.72;100008.25;5059767;28;45386;-74
2023/07/01 04:41:20;;;;;;;;;1.75;1.75;;;;;20.60;86.19;100025.13;5061580;28;45536;-74
2023/07/01 04:43:46;;;;;;;;;2.00;2.00;;;;;20.57;85.36;100015.59;5061088;28;46148;-77
2023/07/01 04:46:11;;;;;;;;;1.75;1.75;;;;;20.59;84.94;100015.44;5069778;28;45673;-71
2023/07/01 04:48:37;;;;;;;;;1.00;1.00;;;;;20.57;86.89;100006.72;5074052;28;45449;-77
2023/07/01 04:51:02;;;;;;;;;0.50;0.50;;;;;20.64;100.00;100010.50;5069522;28;45354;-77
2023/07/01 04:53:27;;;;;;;;;2.00;2.00;;;;;20.58;100.00;100014.59;5064131;28;45395;-72
2023/07/01 04:55:53;;;;;;;;;0.00;0.00;;;;;20.56;99.45;100010.38;5059113;28;61946;-72
2023/07/01 04:58:18;;;;;;;;;1.00;1.00;;;;;20.55;90.68;100001.53;5064220;28;45473;-70
2023/07/01 05:00:44;;;;;;;;;1.00;1.00;;;;;20.50;90.76;100006.44;5062439;28;45322;-70
2023/07/01 05:03:09;;;;;;;;;1.00;1.00;;;;;20.49;90.98;100002.09;5059638;28;45425;-70
2023/07/01 05:05:35;;;;;;;;;1.00;1.00;;;;;20.47;90.32;100009.41;5061604;28;48600;-74
2023/07/01 05:08:00;;;;;;;;;2.75;2.75;;;;;20.48;89.88;100004.88;5059965;28;45399;-75
2023/07/01 05:10:26;;;;;;;;;1.00;1.00;;;;;20.42;88.76;99987.59;5061363;28;45181;-70
2023/07/01 05:12:51;;;;;;;;;1.00;1.00;;;;;20.55;88.12;99996.19;5062328;28;45236;-71
2023/07/01 05:15:17;;;;;;;;;0.50;0.50;;;;;20.62;88.54;100007.13;5045397;28;45305;-70
2023/07/01 05:17:43;;;;;;;;;0.75;0.75;;;;;20.64;90.52;100009.69;5064161;28;45403;-72
2023/07/01 05:20:10;;;;;;;;;0.00;0.00;;;;;20.57;88.69;99993.34;5041144;28;45378;-73
2023/07/01 05:22:36;;;;;;;;;1.00;1.00;;;;;20.54;88.73;99999.84;5059620;28;46563;-71
2023/07/01 05:25:03;;;;;;;;;0.75;0.75;;;;;20.52;90.28;100001.81;5061596;28;45394;-76
2023/07/01 05:27:29;;;;;;;;;1.00;1.00;;;;;20.41;91.34;99981.41;5064890;28;45262;-73
2023/07/01 05:29:54;;;;;;;;;1.50;1.50;;;;;20.51;90.94;99994.78;5043424;28;45221;-77
2023/07/01 05:32:19;;;;;;;;;1.00;1.00;;;;;20.56;91.03;99992.53;5043244;28;47354;-72
2023/07/01 05:34:45;;;;;;;;;1.00;1.00;;;;;20.69;90.83;100000.28;5059187;28;45212;-73
2023/07/01 05:37:10;;;;;;;;;1.00;1.00;;;;;20.75;93.32;99996.16;5059288;28;45323;-71
2023/07/01 05:39:36;;;;;;;;;0.75;0.75;;;;;20.67;91.16;99983.50;5060018;28;45299;-77
2023/07/01 05:42:01;;;;;;;;;0.50;0.50;;;;;20.76;90.40;99999.69;5058770;28;46234;-71
2023/07/01 05:44:27;;;;;;;;;1.00;1.00;;;;;20.76;90.38;100003.19;5042451;28;45204;-71
2023/07/01 05:46:53;;;;;;;;;1.00;1.00;;;;;20.80;90.22;100004.63;5059518;28;45458;-72
2023/07/01 05:49:18;;;;;;;;;0.25;0.25;;;;;20.78;91.05;99987.03;5057116;28;45443;-74
2023/07/01 05:51:44;;;;;;;;;1.00;1.00;;;;;20.81;90.25;99998.31;5060404;28;51610;-73
2023/07/01 05:54:09;;;;;;;;;0.25;0.25;;;;;20.87;89.56;100002.25;5040598;28;45374;-76
2023/07/01 05:56:35;;;;;;;;;1.00;1.00;;;;;20.90;89.22;99998.44;5059351;28;45941;-72
2023/07/01 05:59:03;;;;;;;;;4.00;4.00;;;;;20.98;89.00;100006.56;5040963;28;45467;-72
2023/07/01 06:01:29;;;;;;;;;3.25;3.25;;;;;21.08;88.95;100001.22;5039512;28;46986;-72
2023/07/01 06:03:54;;;;;;;;;1.50;1.50;;;;;21.17;87.99;100005.69;5057813;28;45334;-76
2023/07/01 06:06:20;;;;;;;;;0.75;0.75;;;;;21.20;88.51;100004.53;5058607;28;45438;-72
2023/07/01 06:08:46;;;;;;;;;1.00;1.00;;;;;21.14;88.13;99984.59;5058666;28;45559;-74
2023/07/01 06:11:12;;;;;;;;;1.75;1.75;;;;;21.23;88.28;99996.25;5058017;28;45309;-73
2023/07/01 06:13:38;;;;;;;;;1.00;1.00;;;;;21.25;88.22;99994.28;5043547;28;45126;-77
2023/07/01 06:16:04;;;;;;;;;6.50;6.50;;;;;21.34;87.96;100000.56;5059788;28;45239;-76
2023/07/01 06:18:29;;;;;;;;;6.50;6.50;;;;;21.37;87.81;100003.81;5060277;28;45287;-78
2023/07/01 06:20:56;;;;;;;;;1.00;1.00;;;;;21.38;87.10;100001.97;5059294;28;45611;-76
2023/07/01 06:23:21;;;;;;;;;3.75;3.75;;;;;21.41;88.21;100001.66;5059253;28;45356;-73
2023/07/01 06:25:47;;;;;;;;;0.50;0.50;;;;;21.44;87.41;99998.72;5039924;28;45353;-76
2023/07/01 06:28:12;;;;;;;;;2.00;2.00;;;;;21.47;87.42;99998.41;5039573;28;45418;-72
2023/07/01 06:30:38;;;;;;;;;1.50;1.50;;;;;21.58;86.88;100006.25;5061330;28;45362;-71
2023/07/01 06:33:06;;;;;;;;;2.00;2.00;;;;;21.60;86.98;99992.72;5041582;28;45375;-74
2023/07/01 06:35:32;;;;;;;;;2.00;2.00;;;;;21.60;86.24;99976.69;5061665;28;45359;-76
2023/07/01 06:37:57;;;;;;;;;0.25;0.25;;;;;21.74;86.00;99991.44;5060882;28;45717;-75
2023/07/01 06:40:22;;;;;;;;;3.00;3.00;;;;;21.78;86.12;99987.47;5058561;28;45474;-70
2023/07/01 06:42:48;;;;;;;;;2.00;2.00;;;;;21.71;85.62;99972.97;5057792;28;45312;-73
2023/07/01 06:45:13;;;;;;;;;1.00;1.00;;;;;21.80;85.67;99982.81;5038608;28;45485;-72
2023/07/01 06:47:38;;;;;;;;;0.00;0.00;;;;;21.96;85.50;99979.47;5039674;28;45458;-72
2023/07/01 06:50:05;;;;;;;;;1.00;1.00;;;;;22.24;84.90;99991.97;5057724;28;45332;-75
2023/07/01 06:52:31;;;;;;;;;2.00;2.00;;;;;22.37;84.10;99976.34;5057857;28;45298;-70
2023/07/01 06:54:56;;;;;;;;;1.75;1.75;;;;;22.70;83.06;99990.06;5062581;28;45568;-75
2023/07/01 06:57:21;;;;;;;;;1.25;1.25;;;;;22.99;81.72;99986.25;5061939;28;45422;-73
2023/07/01 06:59:47;;;;;;;;;1.75;1.75;;;;;23.33;80.30;99977.44;5064426;28;45351;-85
2023/07/01 07:02:12;;;;;;;;;6.00;5.75;;;;;23.65;78.92;99985.81;5063616;28;45441;-84
2023/07/01 07:04:38;;;;;;;;;1.00;1.00;;;;;23.84;77.55;99990.03;5059896;28;45425;-73
2023/07/01 07:07:04;;;;;;;;;1.75;1.75;;;;;23.87;74.78;99970.09;5058288;28;45380;-77
2023/07/01 07:09:29;;;;;;;;;1.50;1.50;;;;;23.99;74.93;99982.22;5056393;28;45310;-73
2023/07/01 07:11:55;;;;;;;;;1.00;1.00;;;;;24.15;73.77;99970.69;5038619;28;45391;-71
2023/07/01 07:14:22;;;;;;;;;4.75;4.75;;;;;24.15;71.70;99984.13;5056712;28;45825;-70
2023/07/01 07:16:47;;;;;;;;;6.25;6.25;;;;;23.98;71.91;99983.22;5058830;28;45654;-73
2023/07/01 07:19:13;;;;;;;;;10.25;9.75;;;;;23.84;72.28;99991.91;5054488;28;46078;-71
2023/07/01 07:21:39;;;;;;;;;1.50;1.50;;;;;23.62;72.19;99991.50;5057279;28;45391;-70
2023/07/01 07:24:05;;;;;;;;;0.75;0.75;;;;;23.40;72.61;99972.28;5058136;28;45321;-72
2023/07/01 07:26:30;;;;;;;;;3.50;3.50;;;;;23.37;74.11;99966.38;5038960;28;45424;-75
2023/07/01 07:28:55;;;;;;;;;5.00;5.00;;;;;23.42;74.34;99983.69;5056010;28;45984;-70
2023/07/01 07:31:21;;;;;;;;;3.25;3.25;;;;;23.31;74.85;99970.53;5056059;28;45460;-73
2023/07/01 07:33:46;;;;;;;;;3.75;3.75;;;;;23.23;75.06;99971.31;5056074;28;45380;-70
2023/07/01 07:36:11;;;;;;;;;3.00;2.00;;;;;23.24;75.27;99985.59;5056033;28;45716;-72
2023/07/01 07:38:37;;;;;;;;;2.25;2.25;;;;;23.16;74.88;99984.50;5043660;28;46915;-71
2023/07/01 07:41:03;;;;;;;;;7.50;7.50;;;;;23.17;74.85;99953.16;5062339;28;45401;-74
2023/07/01 07:43:28;;;;;;;;;7.25;7.25;;;;;23.32;74.63;99974.91;5046544;28;45421;-73
2023/07/01 07:45:53;;;;;;;;;6.00;6.00;;;;;23.38;73.89;99979.66;5061655;28;45314;-74
2023/07/01 07:48:19;;;;;;;;;6.50;6.50;;;;;23.29;73.80;99959.13;5057219;28;47080;-74
2023/07/01 07:50:44;;;;;;;;;4.00;4.00;;;;;23.55;73.13;99979.72;5055517;28;45341;-76
2023/07/01 07:53:10;;;;;;;;;3.75;3.75;;;;;23.70;72.86;99977.25;5036572;28;45202;-77
2023/07/01 07:55:35;;;;;;;;;3.50;3.50;;;;;23.86;72.18;99981.84;5024836;28;45209;-75
2023/07/01 07:58:01;;;;;;;;;1.50;1.50;;;;;23.95;71.66;99983.53;5055530;28;45273;-75
2023/07/01 08:00:27;;;;;;;;;2.25;2.25;;;;;24.06;71.25;99983.25;5056843;28;45384;-75
2023/07/01 08:02:52;;;;;;;;;0.75;0.75;;;;;24.05;70.59;99968.16;5057962;28;45193;-71
2023/07/01 08:05:18;;;;;;;;;0.75;0.75;;;;;24.28;70.74;99972.88;5055761;28;45201;-72
2023/07/01 08:07:47;;;;;;;;;2.00;2.00;;;;;24.38;69.59;99982.63;5058147;28;45350;-74
2023/07/01 08:10:13;;;;;;;;;1.50;1.50;;;;;24.25;68.29;99951.72;5056082;28;45347;-75
2023/07/01 08:12:39;;;;;;;;;2.00;2.00;;;;;24.44;68.27;99969.38;5025434;28;45237;-72
2023/07/01 08:15:05;;;;;;;;;1.75;1.75;;;;;24.28;67.93;99934.44;5039990;28;45216;-73
2023/07/01 08:17:30;;;;;;;;;1.50;1.50;;;;;24.50;67.36;99966.00;5051895;28;46266;-71
2023/07/01 08:19:55;;;;;;;;;2.00;2.00;;;;;24.48;66.60;99961.84;5057901;28;45398;-70
2023/07/01 08:22:21;;;;;;;;;1.25;1.25;;;;;24.48;66.75;99972.59;5038725;28;45556;-72
2023/07/01 08:24:46;;;;;;;;;1.00;1.00;;;;;24.44;66.84;99973.94;5041063;28;45588;-71
2023/07/01 08:27:11;;;;;;;;;1.75;1.75;;;;;24.41;66.74;99974.25;5058582;28;45250;-71
2023/07/01 08:29:37;;;;;;;;;2.00;2.00;;;;;24.59;66.61;99969.56;5060197;28;45454;-71
2023/07/01 08:32:02;;;;;;;;;1.50;1.50;;;;;24.99;65.26;99975.09;5061912;28;45220;-75
2023/07/01 08:34:28;;;;;;;;;0.00;0.00;;;;;25.22;65.00;99967.13;5055015;28;45359;-74
2023/07/01 08:36:53;;;;;;;;;0.75;0.75;;;;;25.05;65.51;99976.25;5059955;28;45280;-73
2023/07/01 08:39:19;;;;;;;;;13.75;13.75;;;;;24.68;68.54;99983.00;5059333;28;45307;-73
2023/07/01 08:42:04;;;;;;;;;2.00;2.00;;;;;24.25;70.12;99981.28;5060058;28;45477;-75
2023/07/01 08:44:30;;;;;;;;;2.25;2.25;;;;;23.70;100.00;100004.94;5059716;28;45274;-72
2023/07/01 08:46:56;;;;;;;;;0.00;0.00;;;;;22.69;100.00;100007.13;5041488;28;47030;-73
2023/07/01 08:49:22;;;;;;;;;2.25;2.25;;;;;21.84;100.00;99994.06;5058992;28;45612;-72
2023/07/01 08:51:51;;;;;;;;;0.00;0.00;;;;;21.47;100.00;100010.97;5059704;28;45508;-74
2023/07/01 08:54:18;;;;;;;;;0.00;0.00;;;;;21.24;100.00;100000.63;5061193;28;45216;-70
2023/07/01 08:56:48;;;;;;;;;1.00;1.00;;;;;21.07;100.00;100008.38;5062527;28;46966;-72
2023/07/01 08:59:14;;;;;;;;;1.00;1.00;;;;;20.79;100.00;99992.25;5059352;28;45481;-73
2023/07/01 09:01:42;;;;;;;;;0.75;0.75;;;;;20.71;100.00;99990.28;5060389;28;45357;-72
2023/07/01 09:04:07;;;;;;;;;0.00;0.00;;;;;20.68;100.00;99993.25;5040930;28;45507;-74
2023/07/01 09:06:33;;;;;;;;;1.00;1.00;;;;;20.71;100.00;99986.75;5039827;28;57492;-72
2023/07/01 09:08:58;;;;;;;;;0.25;0.25;;;;;20.63;100.00;99973.25;5027998;28;46508;-73
2023/07/01 09:11:23;;;;;;;;;1.00;1.00;;;;;20.77;100.00;99991.53;5056570;28;45624;-72
2023/07/01 09:13:55;;;;;;;;;1.00;1.00;;;;;20.97;100.00;99996.88;5059041;28;45481;-74
2023/07/01 09:16:36;;;;;;;;;1.00;1.00;;;;;21.05;100.00;99972.91;5057662;28;46676;-71
2023/07/01 09:19:06;;;;;;;;;2.00;2.00;;;;;21.33;100.00;99994.41;5039225;28;45323;-75
2023/07/01 09:21:32;;;;;;;;;1.50;1.50;;;;;21.64;100.00;99977.25;5039753;28;45528;-75
2023/07/01 09:23:59;;;;;;;;;1.00;1.00;;;;;22.15;100.00;99986.53;5057214;28;45405;-75
2023/07/01 09:26:30;;;;;;;;;2.00;2.00;;;;;22.76;100.00;99991.28;5057515;28;45454;-75
2023/07/01 09:28:56;;;;;;;;;1.00;1.00;;;;;23.14;100.00;99958.84;5058059;28;45210;-75
2023/07/01 09:31:22;;;;;;;;;2.00;2.00;;;;;23.74;100.00;99971.41;5057329;28;45385;-73
2023/07/01 09:34:05;;;;;;;;;2.50;2.50;;;;;24.33;100.00;99980.47;5060189;28;45600;-73
2023/07/01 09:36:31;;;;;;;;;3.50;3.50;;;;;24.73;100.00;99980.63;5022322;28;47211;-73
2023/07/01 09:38:57;;;;;;;;;1.00;1.00;;;;;24.90;100.00;99978.78;5057901;28;45453;-74
2023/07/01 09:41:26;;;;;;;;;0.00;0.00;;;;;25.24;100.00;99981.25;5056579;28;45170;-74
2023/07/01 09:43:54;;;;;;;;;0.75;0.75;;;;;25.58;100.00;99975.78;5039604;28;45388;-75
2023/07/01 09:46:20;;;;;;;;;1.00;1.00;;;;;25.72;100.00;99977.75;5039019;28;47143;-75
2023/07/01 09:48:52;;;;;;;;;2.00;2.00;;;;;25.38;100.00;99984.22;5038248;28;46116;-70
2023/07/01 09:51:19;;;;;;;;;2.00;1.25;;;;;25.18;100.00;99997.25;5056387;28;45690;-76
2023/07/01 09:53:44;;;;;;;;;0.00;0.00;;;;;25.19;100.00;99983.59;5059097;28;45477;-74
2023/07/01 09:56:12;;;;;;;;;0.00;0.00;;;;;25.39;100.00;99988.59;5058244;28;46299;-72
2023/07/01 09:58:39;;;;;;;;;0.00;0.00;;;;;25.55;100.00;99992.31;5053397;28;45839;-72
2023/07/01 10:01:04;;;;;;;;;0.00;0.00;;;;;25.61;100.00;99980.81;5037533;28;45361;-71
2023/07/01 10:03:30;;;;;;;;;0.75;0.75;;;;;25.78;100.00;99986.97;5039959;28;45264;-71
2023/07/01 10:05:55;;;;;;;;;1.00;1.00;;;;;26.12;100.00;99985.78;5057299;28;45410;-73
2023/07/01 10:08:21;;;;;;;;;0.25;0.25;;;;;26.34;98.95;99976.03;5022243;28;45357;-71
2023/07/01 10:10:59;;;;;;;;;0.00;0.00;;;;;26.27;92.53;99980.47;5042801;28;45421;-73
2023/07/01 10:13:26;;;;;;;;;0.00;0.00;;;;;26.32;98.61;99980.75;5039839;28;45550;-72
2023/07/01 10:15:52;;;;;;;;;1.50;1.50;;;;;26.45;95.89;99984.72;5055362;28;46277;-71
2023/07/01 10:18:21;;;;;;;;;0.00;0.00;;;;;26.72;93.71;99988.72;5056424;28;45415;-71
2023/07/01 10:20:47;;;;;;;;;0.00;0.00;;;;;26.63;88.22;99977.16;5059712;28;45430;-72
2023/07/01 10:23:12;;;;;;;;;0.25;0.25;;;;;26.89;96.77;99991.28;5056647;28;45654;-72
2023/07/01 10:25:39;;;;;;;;;0.00;0.00;;;;;27.18;93.78;99995.06;5056102;28;46200;-71
2023/07/01 10:28:14;;;;;;;;;0.75;0.75;;;;;27.32;91.32;99963.69;5037933;28;45231;-75
2023/07/01 10:30:46;;;;;;;;;0.00;0.00;;;;;27.45;86.15;99985.44;5045287;28;45254;-73
2023/07/01 10:33:30;;;;;;;;;0.00;0.00;;;;;27.46;87.41;99983.59;5058487;28;45497;-73
2023/07/01 10:36:09;;;;;;;;;2.25;2.25;;;;;27.41;83.18;99981.44;5056404;28;46174;-72
2023/07/01 10:38:37;;;;;;;;;3.25;3.25;;;;;27.41;81.76;99978.75;5056645;28;45272;-74
2023/07/01 10:41:04;;;;;;;;;0.00;0.00;;;;;27.29;81.05;99966.75;5057069;28;45455;-73
2023/07/01 10:43:33;;;;;;;;;0.50;0.50;;;;;27.16;78.75;99968.25;5037797;28;45457;-73
2023/07/01 10:46:24;;;;;;;;;0.00;0.00;;;;;27.08;76.69;99979.13;5038279;28;45443;-70
2023/07/01 10:49:01;;;;;;;;;0.75;0.75;;;;;27.01;78.44;99983.59;5067008;28;45299;-72
2023/07/01 10:51:27;;;;;;;;;2.75;2.75;;;;;27.06;77.16;99979.31;5057627;28;45394;-73
2023/07/01 10:54:04;;;;;;;;;0.75;0.75;;;;;27.24;79.31;99981.66;5060877;28;45422;-72
2023/07/01 10:56:34;;;;;;;;;2.00;2.00;;;;;27.35;76.39;99972.25;5035580;28;45426;-71
2023/07/01 10:59:20;;;;;;;;;5.00;5.00;;;;;27.37;73.93;99994.50;5017647;28;45474;-73
2023/07/01 11:01:48;;;;;;;;;2.00;2.00;;;;;27.30;69.49;99981.94;5052142;28;45470;-71
2023/07/01 11:04:14;;;;;;;;;1.00;1.00;;;;;27.20;71.96;99985.75;5041162;28;45322;-72
2023/07/01 11:06:50;;;;;;;;;2.00;2.00;;;;;27.24;72.84;99981.66;5037435;28;45775;-74
2023/07/01 11:09:27;;;;;;;;;1.25;1.25;;;;;27.51;70.10;99983.91;5041561;28;45255;-75
2023/07/01 11:11:53;;;;;;;;;1.75;1.75;;;;;27.78;67.61;99977.00;5055235;28;45252;-75
2023/07/01 11:14:28;;;;;;;;;0.00;0.00;;;;;28.09;68.47;99985.81;5055880;28;45449;-71
2023/07/01 11:16:53;;;;;;;;;0.00;0.00;;;;;28.46;69.20;99978.53;5050946;28;46371;-73
2023/07/01 11:19:19;;;;;;;;;1.50;1.50;;;;;28.85;65.50;99977.22;5053530;28;45602;-72
2023/07/01 11:21:44;;;;;;;;;1.00;1.00;;;;;29.04;65.52;99976.72;5037153;28;45457;-73
2023/07/01 11:24:10;;;;;;;;;1.00;1.00;;;;;29.17;60.12;99963.28;5055413;28;45446;-73
2023/07/01 11:26:37;;;;;;;;;1.50;1.50;;;;;29.16;61.43;99983.25;5046253;28;46997;-72